Time;durP1;ratioP1;P1;durP2;ratioP2;P2;SDS_P1;SDS_P2;PMS_P1;PMS_P2;Temp;Humidity;BMP_temperature;BMP_pressure;BME280_temperature;BME280_humidity;BME280_pressure;Samples;Min_cycle;Max_cycle;Signal;HPM_P1;HPM_P2
2021/04/19 00:00:56;;;;;;;10.48;2.53;;;10.10;99.90;;;;;;5064554;28;20020;-73
2021/04/19 00:03:22;;;;;;;7.20;3.15;;;10.00;99.90;;;;;;5064322;28;20056;-71
2021/04/19 00:05:48;;;;;;;6.05;2.72;;;10.00;99.90;;;;;;5064461;28;20025;-70
2021/04/19 00:08:14;;;;;;;7.55;2.13;;;10.10;99.90;;;;;;5064557;28;20044;-72
2021/04/19 00:10:40;;;;;;;4.25;2.38;;;10.00;99.90;;;;;;5064719;28;20055;-73
2021/04/19 00:13:06;;;;;;;4.53;2.38;;;9.90;99.90;;;;;;5064620;28;20037;-71
2021/04/19 00:15:32;;;;;;;9.30;2.92;;;9.90;99.90;;;;;;5063132;28;20446;-73
2021/04/19 00:17:58;;;;;;;10.73;1.90;;;9.90;99.90;;;;;;5064223;28;20033;-71
2021/04/19 00:20:24;;;;;;;4.85;2.25;;;9.80;99.90;;;;;;5064241;28;20045;-71
2021/04/19 00:22:49;;;;;;;6.35;2.58;;;9.80;99.90;;;;;;5064200;28;20049;-72
2021/04/19 00:25:16;;;;;;;4.65;2.40;;;9.70;99.90;;;;;;5064444;28;20036;-72
2021/04/19 00:27:42;;;;;;;6.07;2.70;;;9.70;99.90;;;;;;5064673;28;20036;-72
2021/04/19 00:30:09;;;;;;;10.18;2.75;;;9.70;99.90;;;;;;5064439;28;20393;-72
2021/04/19 00:32:35;;;;;;;4.63;2.30;;;9.70;99.90;;;;;;5064380;28;20029;-71
2021/04/19 00:35:01;;;;;;;11.82;2.50;;;9.70;99.90;;;;;;5064268;28;20035;-72
2021/04/19 00:37:27;;;;;;;4.03;2.25;;;9.60;99.90;;;;;;5064023;28;20033;-71
2021/04/19 00:39:53;;;;;;;9.20;2.88;;;9.50;99.90;;;;;;5064766;28;20097;-72
2021/04/19 00:42:20;;;;;;;5.13;1.73;;;9.50;99.90;;;;;;5067979;28;20526;-71
2021/04/19 00:44:46;;;;;;;8.75;2.30;;;9.50;99.90;;;;;;5068231;28;20166;-71
2021/04/19 00:47:13;;;;;;;5.68;2.67;;;9.50;99.90;;;;;;5066698;28;20021;-71
2021/04/19 00:49:40;;;;;;;6.45;2.72;;;9.40;99.90;;;;;;5067863;28;20055;-71
2021/04/19 00:52:07;;;;;;;9.23;2.95;;;9.30;99.90;;;;;;5068015;28;20036;-73
2021/04/19 00:54:32;;;;;;;11.10;3.78;;;9.30;99.90;;;;;;5066423;28;20129;-72
2021/04/19 00:56:59;;;;;;;26.48;3.22;;;9.30;99.90;;;;;;5067935;28;20489;-72
2021/04/19 00:59:24;;;;;;;5.22;2.80;;;9.30;99.90;;;;;;5067851;28;20110;-71
2021/04/19 01:01:50;;;;;;;4.13;2.05;;;9.20;99.90;;;;;;5067655;28;20103;-71
2021/04/19 01:04:16;;;;;;;8.05;2.58;;;9.20;99.90;;;;;;5067906;28;20486;-72
2021/04/19 01:06:42;;;;;;;8.80;3.05;;;9.10;99.90;;;;;;5067828;28;20025;-71
2021/04/19 01:09:08;;;;;;;5.93;3.20;;;9.10;99.90;;;;;;5067832;28;20025;-71
2021/04/19 01:11:35;;;;;;;4.95;2.42;;;9.00;99.90;;;;;;5067770;28;20033;-71
2021/04/19 01:14:00;;;;;;;4.28;2.47;;;9.00;99.90;;;;;;5067403;28;20440;-73
2021/04/19 01:16:26;;;;;;;11.93;3.20;;;9.00;99.90;;;;;;5067451;28;20021;-71
2021/04/19 01:18:52;;;;;;;7.20;3.22;;;9.00;99.90;;;;;;5066062;28;20048;-73
2021/04/19 01:21:18;;;;;;;13.43;3.10;;;9.00;99.90;;;;;;5065468;28;20029;-72
2021/04/19 01:23:43;;;;;;;8.77;3.42;;;8.90;99.90;;;;;;5067263;28;20044;-72
2021/04/19 01:26:09;;;;;;;8.25;3.45;;;8.90;99.90;;;;;;5067630;28;20033;-73
2021/04/19 01:28:35;;;;;;;5.50;2.65;;;8.90;99.90;;;;;;5067363;28;20440;-71
2021/04/19 01:31:01;;;;;;;7.68;3.28;;;8.80;99.90;;;;;;5067293;28;20021;-72
2021/04/19 01:33:27;;;;;;;7.43;3.20;;;8.80;99.90;;;;;;5065707;28;20044;-72
2021/04/19 01:35:52;;;;;;;7.95;2.60;;;8.80;99.90;;;;;;5066969;28;20024;-72
2021/04/19 01:38:23;;;;;;;10.38;3.53;;;8.90;99.90;;;;;;5067129;28;20092;-72
2021/04/19 01:40:50;;;;;;;13.55;3.17;;;8.80;99.90;;;;;;5067150;28;20116;-73
2021/04/19 01:43:17;;;;;;;3.50;2.40;;;8.80;99.90;;;;;;5067054;28;20027;-73
2021/04/19 01:45:43;;;;;;;6.68;2.90;;;8.80;99.90;;;;;;5067193;28;20029;-72
2021/04/19 01:48:10;;;;;;;7.28;3.25;;;8.70;99.90;;;;;;5065744;28;20088;-73
2021/04/19 01:50:36;;;;;;;11.68;3.92;;;8.80;99.90;;;;;;5066732;28;20037;-73
2021/04/19 01:53:02;;;;;;;6.55;3.28;;;8.70;99.90;;;;;;5065807;28;20059;-72
2021/04/19 01:55:30;;;;;;;7.88;3.30;;;8.70;99.90;;;;;;5066888;28;20029;-71
2021/04/19 01:58:07;;;;;;;8.10;4.65;;;8.60;99.90;;;;;;5066422;28;20028;-71
2021/04/19 02:00:34;;;;;;;10.55;3.60;;;8.70;99.90;;;;;;5066846;28;20085;-72
2021/04/19 02:03:05;;;;;;;14.70;5.25;;;8.70;99.90;;;;;;5066753;28;20234;-72
2021/04/19 02:05:49;;;;;;;18.15;5.68;;;8.70;99.90;;;;;;5066322;28;20029;-72
2021/04/19 02:08:29;;;;;;;18.10;5.82;;;8.70;99.90;;;;;;5066702;28;20025;-73
2021/04/19 02:11:12;;;;;;;9.48;4.35;;;8.80;99.90;;;;;;5066586;28;20033;-72
2021/04/19 02:13:44;;;;;;;7.22;3.30;;;8.80;99.90;;;;;;5065967;28;20039;-72
2021/04/19 02:16:39;;;;;;;9.52;4.50;;;8.80;99.90;;;;;;5066685;28;20104;-73
2021/04/19 02:19:43;;;;;;;12.25;4.78;;;8.90;99.90;;;;;;5066301;28;20040;-72
2021/04/19 02:22:15;;;;;;;10.73;4.35;;;8.80;99.90;;;;;;5065284;28;20485;-73
2021/04/19 02:24:45;;;;;;;10.38;4.68;;;8.80;99.90;;;;;;5066098;28;20037;-72
2021/04/19 02:27:18;;;;;;;13.32;5.18;;;8.80;99.90;;;;;;5066087;28;20040;-74
2021/04/19 02:29:47;;;;;;;14.65;6.75;;;8.80;99.90;;;;;;5066521;28;20048;-71
2021/04/19 02:32:16;;;;;;;14.50;7.13;;;8.80;99.90;;;;;;5066396;28;20047;-72
2021/04/19 02:34:44;;;;;;;15.43;7.50;;;8.70;99.90;;;;;;5066100;28;20085;-73
2021/04/19 02:37:12;;;;;;;21.10;7.97;;;8.70;99.90;;;;;;5066089;28;20028;-74
2021/04/19 02:39:41;;;;;;;13.35;7.82;;;8.70;99.90;;;;;;5066119;28;20082;-70
2021/04/19 02:42:08;;;;;;;14.60;7.63;;;8.60;99.90;;;;;;5063753;28;20044;-74
2021/04/19 02:44:35;;;;;;;23.50;9.70;;;8.60;99.90;;;;;;5063770;28;20047;-73
2021/04/19 02:47:01;;;;;;;29.30;9.05;;;8.60;99.90;;;;;;5064914;28;20061;-74
2021/04/19 02:49:30;;;;;;;27.50;8.75;;;8.60;99.90;;;;;;5063934;28;20025;-73
2021/04/19 02:51:57;;;;;;;18.48;8.20;;;8.60;99.90;;;;;;5065838;28;20024;-72
2021/04/19 02:54:24;;;;;;;15.13;8.60;;;8.60;99.90;;;;;;5065701;28;20040;-73
2021/04/19 02:56:51;;;;;;;19.45;7.90;;;8.60;99.90;;;;;;5065651;28;20425;-72
2021/04/19 02:59:20;;;;;;;15.52;7.38;;;8.70;99.90;;;;;;5064242;28;20033;-72
2021/04/19 03:01:49;;;;;;;29.52;8.80;;;8.70;99.90;;;;;;5064353;28;20021;-72
2021/04/19 03:04:17;;;;;;;23.08;9.93;;;8.70;99.90;;;;;;5064608;28;20040;-73
2021/04/19 03:06:48;;;;;;;17.33;8.20;;;8.60;99.90;;;;;;5065217;28;20079;-72
2021/04/19 03:09:16;;;;;;;19.67;7.95;;;8.60;99.90;;;;;;5065769;28;20029;-72
2021/04/19 03:11:52;;;;;;;20.65;8.90;;;8.60;99.90;;;;;;5063227;28;20025;-74
2021/04/19 03:14:22;;;;;;;17.00;7.20;;;8.60;99.90;;;;;;5065361;28;20036;-71
2021/04/19 03:16:53;;;;;;;16.40;7.85;;;8.60;99.90;;;;;;5065608;28;20112;-73
2021/04/19 03:19:23;;;;;;;16.77;7.63;;;8.60;99.90;;;;;;5064950;28;20045;-72
2021/04/19 03:21:50;;;;;;;14.23;7.65;;;8.50;99.90;;;;;;5065314;28;20021;-74
2021/04/19 03:24:16;;;;;;;16.50;7.38;;;8.50;99.90;;;;;;5064008;28;20170;-72
2021/04/19 03:26:43;;;;;;;14.85;6.30;;;8.50;99.90;;;;;;5065471;28;20453;-72
2021/04/19 03:29:10;;;;;;;13.05;7.13;;;8.50;99.90;;;;;;5063916;28;20119;-72
2021/04/19 03:31:42;;;;;;;17.02;7.57;;;8.50;99.90;;;;;;5065146;28;20060;-72
2021/04/19 03:34:13;;;;;;;22.67;7.68;;;8.50;99.90;;;;;;5063823;28;20033;-71
2021/04/19 03:36:41;;;;;;;16.83;8.52;;;8.60;99.90;;;;;;5065040;28;20048;-73
2021/04/19 03:39:08;;;;;;;17.35;8.65;;;8.60;99.90;;;;;;5065153;28;20031;-72
2021/04/19 03:41:46;;;;;;;14.77;7.50;;;8.60;99.90;;;;;;5063526;28;20032;-72
2021/04/19 03:44:14;;;;;;;19.88;7.72;;;8.70;99.90;;;;;;5064714;28;20051;-71
2021/04/19 03:46:41;;;;;;;20.80;8.50;;;8.60;99.90;;;;;;5064358;28;20029;-73
2021/04/19 03:49:13;;;;;;;19.15;7.75;;;8.60;99.90;;;;;;5064296;28;20439;-71
2021/04/19 03:51:43;;;;;;;13.77;6.90;;;8.60;99.90;;;;;;5064332;28;20033;-71
2021/04/19 03:54:11;;;;;;;17.35;7.38;;;8.60;99.90;;;;;;5062995;28;20376;-71
2021/04/19 03:56:39;;;;;;;18.35;7.93;;;8.60;99.90;;;;;;5064838;28;20029;-71
2021/04/19 03:59:10;;;;;;;15.77;7.03;;;8.60;99.90;;;;;;5064923;28;20049;-72
2021/04/19 04:01:37;;;;;;;17.88;7.50;;;8.60;99.90;;;;;;5063412;28;20071;-72
2021/04/19 04:04:04;;;;;;;15.23;6.78;;;8.50;99.90;;;;;;5064498;28;20037;-73
2021/04/19 04:06:30;;;;;;;22.20;7.75;;;8.50;99.90;;;;;;5064695;28;20056;-73
2021/04/19 04:08:58;;;;;;;13.30;6.97;;;8.50;99.90;;;;;;5064466;28;20029;-72
2021/04/19 04:11:25;;;;;;;21.65;8.25;;;8.40;99.90;;;;;;5064449;28;20100;-72
2021/04/19 04:13:51;;;;;;;20.90;8.57;;;8.50;99.90;;;;;;5064437;28;20056;-71
2021/04/19 04:16:17;;;;;;;22.70;8.48;;;8.50;99.90;;;;;;5067520;28;20040;-74
2021/04/19 04:18:42;;;;;;;19.08;7.95;;;8.50;99.90;;;;;;5066680;28;20112;-73
2021/04/19 04:21:09;;;;;;;17.13;7.90;;;8.50;99.90;;;;;;5067204;28;20517;-72
2021/04/19 04:23:35;;;;;;;15.43;7.95;;;8.50;99.90;;;;;;5067961;28;20044;-72
2021/04/19 04:26:02;;;;;;;21.77;9.57;;;8.60;99.90;;;;;;5068433;28;20036;-71
2021/04/19 04:28:28;;;;;;;30.55;8.98;;;8.60;99.90;;;;;;5068141;28;20025;-74
2021/04/19 04:30:53;;;;;;;14.75;8.00;;;8.60;99.90;;;;;;5068402;28;20054;-74
2021/04/19 04:33:19;;;;;;;16.40;8.60;;;8.60;99.90;;;;;;5067224;28;20025;-72
2021/04/19 04:35:45;;;;;;;21.45;8.55;;;8.50;99.90;;;;;;5068468;28;20104;-74
2021/04/19 04:38:11;;;;;;;23.95;8.40;;;8.50;99.90;;;;;;5068412;28;20025;-73
2021/04/19 04:40:36;;;;;;;33.03;10.00;;;8.50;99.90;;;;;;5068401;28;20024;-71
2021/04/19 04:43:09;;;;;;;15.80;7.57;;;8.40;99.90;;;;;;5068050;28;20087;-72
2021/04/19 04:45:35;;;;;;;20.03;8.67;;;8.40;99.90;;;;;;5067108;28;20017;-72
2021/04/19 04:48:19;;;;;;;15.82;7.97;;;8.40;99.90;;;;;;5066790;28;20109;-74
2021/04/19 04:51:00;;;;;;;15.03;7.97;;;8.50;99.90;;;;;;5068382;28;20025;-72
2021/04/19 04:53:33;;;;;;;19.73;8.18;;;8.40;99.90;;;;;;5068095;28;20029;-72
2021/04/19 04:56:00;;;;;;;17.75;8.25;;;8.50;99.90;;;;;;5066773;28;20078;-73
2021/04/19 04:58:26;;;;;;;21.42;10.35;;;8.50;99.90;;;;;;5067899;28;20088;-72
2021/04/19 05:00:54;;;;;;;25.40;8.35;;;8.60;99.90;;;;;;5058549;28;20025;-71
2021/04/19 05:03:21;;;;;;;17.92;7.95;;;8.60;99.90;;;;;;5056407;28;20041;-71
2021/04/19 05:05:47;;;;;;;12.43;6.18;;;8.60;99.90;;;;;;5045091;28;20026;-74
2021/04/19 05:08:14;;;;;;;16.13;7.72;;;8.60;99.90;;;;;;5047020;28;20045;-72
2021/04/19 05:10:40;;;;;;;14.02;7.75;;;8.60;99.90;;;;;;5048083;28;20051;-73
2021/04/19 05:13:13;;;;;;;14.98;8.15;;;8.50;99.90;;;;;;5047937;28;20037;-73
2021/04/19 05:15:43;;;;;;;17.88;7.80;;;8.50;99.90;;;;;;5047739;28;20040;-73
2021/04/19 05:18:19;;;;;;;16.17;8.07;;;8.40;99.90;;;;;;5047854;28;20033;-73
2021/04/19 05:20:47;;;;;;;15.45;7.68;;;8.50;99.90;;;;;;5047461;28;20049;-74
2021/04/19 05:23:13;;;;;;;18.65;7.60;;;8.50;99.90;;;;;;5047613;28;20041;-72
2021/04/19 05:25:40;;;;;;;22.00;8.63;;;8.50;99.90;;;;;;5047652;28;20437;-73
2021/04/19 05:28:06;;;;;;;21.83;9.07;;;8.50;99.90;;;;;;5047404;28;20030;-72
2021/04/19 05:30:33;;;;;;;14.75;6.65;;;8.60;99.90;;;;;;5046989;28;20053;-72
2021/04/19 05:32:59;;;;;;;19.17;8.73;;;8.60;99.90;;;;;;5047056;28;20052;-72
2021/04/19 05:35:26;;;;;;;15.88;7.68;;;8.60;99.90;;;;;;5047165;28;20532;-72
2021/04/19 05:37:52;;;;;;;13.90;6.95;;;8.60;99.90;;;;;;5047058;28;20025;-73
2021/04/19 05:40:20;;;;;;;21.52;7.55;;;8.50;99.90;;;;;;5047387;28;20489;-73
2021/04/19 05:42:47;;;;;;;18.15;7.15;;;8.50;99.90;;;;;;5046251;28;20021;-74
2021/04/19 05:45:16;;;;;;;14.52;6.43;;;8.50;99.90;;;;;;5046987;28;20030;-74
2021/04/19 05:47:50;;;;;;;19.50;8.20;;;8.40;99.90;;;;;;5045792;28;20425;-72
2021/04/19 05:50:25;;;;;;;16.38;7.10;;;8.40;99.90;;;;;;5045330;28;20036;-72
2021/04/19 05:52:53;;;;;;;15.57;6.75;;;8.40;99.90;;;;;;5046504;28;20095;-72
2021/04/19 05:55:26;;;;;;;19.63;7.43;;;8.50;99.90;;;;;;5045782;28;20112;-73
2021/04/19 05:58:00;;;;;;;18.20;7.32;;;8.60;99.90;;;;;;5046963;28;20029;-72
2021/04/19 06:00:35;;;;;;;13.80;5.93;;;8.60;99.90;;;;;;5044903;28;20022;-72
2021/04/19 06:03:10;;;;;;;14.43;6.53;;;8.70;99.90;;;;;;5046720;28;20141;-71
2021/04/19 06:05:45;;;;;;;15.00;7.10;;;8.80;99.90;;;;;;5056199;28;20032;-72
2021/04/19 06:08:22;;;;;;;13.65;6.70;;;8.90;99.90;;;;;;5048717;28;20494;-72
2021/04/19 06:10:51;;;;;;;16.70;6.28;;;8.90;99.90;;;;;;5062854;28;20025;-72
2021/04/19 06:13:20;;;;;;;14.13;7.00;;;8.90;99.90;;;;;;5046612;28;20364;-73
2021/04/19 06:15:51;;;;;;;13.50;6.45;;;9.00;99.90;;;;;;5046254;28;20040;-74
2021/04/19 06:18:21;;;;;;;17.90;7.95;;;8.90;99.90;;;;;;5046356;28;20029;-72
2021/04/19 06:20:50;;;;;;;12.38;6.20;;;9.00;99.90;;;;;;5046016;28;20037;-73
2021/04/19 06:23:16;;;;;;;10.80;6.78;;;9.00;99.90;;;;;;5046160;28;20033;-73
2021/04/19 06:25:42;;;;;;;19.95;8.38;;;9.00;99.90;;;;;;5046512;28;20029;-73
2021/04/19 06:28:08;;;;;;;15.73;7.40;;;9.10;99.90;;;;;;5046256;28;20036;-72
2021/04/19 06:30:41;;;;;;;15.40;7.43;;;9.00;99.90;;;;;;5046301;28;20033;-72
2021/04/19 06:33:09;;;;;;;13.07;6.70;;;9.00;99.90;;;;;;5046387;28;20021;-73
2021/04/19 06:35:35;;;;;;;17.80;7.25;;;9.00;99.90;;;;;;5045744;28;20029;-72
2021/04/19 06:38:01;;;;;;;17.42;7.20;;;9.10;99.90;;;;;;5044446;28;20040;-73
2021/04/19 06:40:28;;;;;;;13.32;6.65;;;9.10;99.90;;;;;;5046061;28;20052;-72
2021/04/19 06:42:55;;;;;;;19.05;7.82;;;9.10;99.90;;;;;;5045940;28;20144;-72
2021/04/19 06:45:21;;;;;;;16.38;6.63;;;9.10;99.90;;;;;;5045735;28;20118;-74
2021/04/19 06:47:48;;;;;;;17.42;5.78;;;9.10;99.90;;;;;;5045816;28;20608;-73
2021/04/19 06:50:14;;;;;;;14.60;6.75;;;9.10;99.90;;;;;;5045292;28;20112;-72
2021/04/19 06:52:47;;;;;;;15.02;6.43;;;9.10;99.90;;;;;;5045672;28;20898;-71
2021/04/19 06:55:14;;;;;;;13.32;6.72;;;9.10;99.90;;;;;;5045712;28;20030;-73
2021/04/19 06:57:44;;;;;;;12.05;6.13;;;9.10;99.90;;;;;;5045803;28;20108;-71
2021/04/19 07:00:11;;;;;;;13.85;6.88;;;9.10;99.90;;;;;;5045771;28;20045;-71
2021/04/19 07:02:47;;;;;;;23.20;7.32;;;9.10;99.90;;;;;;5045315;28;20033;-71
2021/04/19 07:05:16;;;;;;;14.68;6.72;;;9.10;99.90;;;;;;5045563;28;20056;-73
2021/04/19 07:08:04;;;;;;;12.80;6.47;;;9.10;99.90;;;;;;5045738;28;20021;-72
2021/04/19 07:10:32;;;;;;;17.45;6.80;;;9.10;99.90;;;;;;5044241;28;20045;-72
2021/04/19 07:12:58;;;;;;;15.73;6.30;;;9.10;99.90;;;;;;5045183;28;20478;-72
2021/04/19 07:15:24;;;;;;;15.30;7.30;;;9.20;99.90;;;;;;5045219;28;20039;-72
2021/04/19 07:17:50;;;;;;;15.32;6.82;;;9.20;99.90;;;;;;5045160;28;20044;-72
2021/04/19 07:20:18;;;;;;;13.27;6.68;;;9.30;99.90;;;;;;5043591;28;20077;-73
2021/04/19 07:22:44;;;;;;;13.40;6.10;;;9.40;99.90;;;;;;5044167;28;20022;-74
2021/04/19 07:25:11;;;;;;;16.60;6.93;;;9.50;99.90;;;;;;5044066;28;20120;-73
2021/04/19 07:27:40;;;;;;;15.30;6.13;;;9.50;99.90;;;;;;5045240;28;20049;-73
2021/04/19 07:30:09;;;;;;;11.73;5.90;;;9.60;99.90;;;;;;5058372;28;20445;-73
2021/04/19 07:32:38;;;;;;;12.68;5.60;;;9.70;99.90;;;;;;5066411;28;20024;-73
2021/04/19 07:35:05;;;;;;;10.23;4.50;;;9.70;99.90;;;;;;5064659;28;20025;-73
2021/04/19 07:37:32;;;;;;;11.55;5.72;;;9.80;99.90;;;;;;5063453;28;20724;-73
2021/04/19 07:40:00;;;;;;;10.90;5.07;;;9.90;99.90;;;;;;5063329;28;20028;-72
2021/04/19 07:42:25;;;;;;;9.75;4.90;;;9.90;99.90;;;;;;5064808;28;20374;-73
2021/04/19 07:44:53;;;;;;;12.65;6.25;;;10.00;99.90;;;;;;5063342;28;20048;-74
2021/04/19 07:47:30;;;;;;;11.63;6.38;;;10.10;99.90;;;;;;5064767;28;20028;-76
2021/04/19 07:50:11;;;;;;;11.68;5.47;;;10.10;99.90;;;;;;5063927;28;20111;-74
2021/04/19 07:53:08;;;;;;;13.25;6.03;;;10.20;99.90;;;;;;5064536;28;20021;-74
2021/04/19 07:55:39;;;;;;;11.82;6.65;;;10.20;99.90;;;;;;5064438;28;20075;-74
2021/04/19 07:58:06;;;;;;;11.52;5.57;;;10.30;99.90;;;;;;5064153;28;20021;-74
2021/04/19 08:00:37;;;;;;;15.30;5.90;;;10.40;99.90;;;;;;5064691;28;20052;-72
2021/04/19 08:03:10;;;;;;;14.05;6.03;;;10.50;99.90;;;;;;5064386;28;20032;-73
2021/04/19 08:05:51;;;;;;;13.38;6.72;;;10.60;99.90;;;;;;5057230;28;20060;-75
2021/04/19 08:08:34;;;;;;;13.80;6.30;;;10.60;99.90;;;;;;5053260;28;20042;-74
2021/04/19 08:11:14;;;;;;;11.30;6.25;;;10.50;99.90;;;;;;5043030;28;20029;-74
2021/04/19 08:13:41;;;;;;;10.07;5.20;;;10.60;99.90;;;;;;5044520;28;20431;-74
2021/04/19 08:16:17;;;;;;;13.60;6.20;;;10.60;99.90;;;;;;5044419;28;20112;-74
2021/04/19 08:18:43;;;;;;;14.15;5.75;;;10.70;99.90;;;;;;5061794;28;20309;-76
2021/04/19 08:21:14;;;;;;;13.25;5.35;;;10.70;99.90;;;;;;5062955;28;20413;-76
2021/04/19 08:23:44;;;;;;;8.52;5.05;;;10.90;99.90;;;;;;5063427;28;20044;-75
2021/04/19 08:26:11;;;;;;;12.60;6.05;;;11.00;99.90;;;;;;5062403;28;20029;-73
2021/04/19 08:28:48;;;;;;;10.88;5.90;;;11.20;99.90;;;;;;5064276;28;20082;-74
2021/04/19 08:31:15;;;;;;;13.57;4.90;;;11.30;99.90;;;;;;5064082;28;20025;-74
2021/04/19 08:33:51;;;;;;;13.65;5.45;;;11.40;99.90;;;;;;5063364;28;20105;-75
2021/04/19 08:36:17;;;;;;;10.05;5.03;;;11.50;99.90;;;;;;5060501;28;20052;-75
2021/04/19 08:38:43;;;;;;;10.68;4.75;;;11.40;99.90;;;;;;5063847;28;20029;-77
2021/04/19 08:41:10;;;;;;;10.48;4.80;;;11.40;99.90;;;;;;5064163;28;20025;-73
2021/04/19 08:43:38;;;;;;;9.95;5.05;;;11.50;99.90;;;;;;5062540;28;20067;-74
2021/04/19 08:46:05;;;;;;;16.33;6.28;;;11.50;99.90;;;;;;5063696;28;20094;-73
2021/04/19 08:48:32;;;;;;;10.20;5.32;;;11.60;99.90;;;;;;5062190;28;20059;-74
2021/04/19 08:51:02;;;;;;;8.95;5.20;;;11.70;99.90;;;;;;5064071;28;20096;-74
2021/04/19 08:53:28;;;;;;;17.30;5.20;;;11.80;99.90;;;;;;5062856;28;20025;-74
2021/04/19 08:55:54;;;;;;;11.90;5.43;;;11.80;99.90;;;;;;5062739;28;20025;-74
2021/04/19 08:58:21;;;;;;;10.57;5.03;;;11.90;99.90;;;;;;5063939;28;20085;-72
2021/04/19 09:00:48;;;;;;;7.13;4.32;;;12.00;99.90;;;;;;5064706;28;20017;-74
2021/04/19 09:03:21;;;;;;;6.70;4.28;;;12.10;99.90;;;;;;5067724;28;20041;-73
2021/04/19 09:05:48;;;;;;;14.35;4.97;;;12.10;99.90;;;;;;5067869;28;20029;-73
2021/04/19 09:08:20;;;;;;;9.75;5.22;;;12.00;99.90;;;;;;5065483;28;20021;-74
2021/04/19 09:10:55;;;;;;;13.07;5.53;;;12.00;99.90;;;;;;5050842;28;20040;-74
2021/04/19 09:13:24;;;;;;;;;;;12.20;99.90;;;;;;5051591;28;20044;-75
2021/04/19 09:15:52;;;;;;;13.88;5.22;;;12.40;99.90;;;;;;5047647;28;19905;-73
2021/04/19 09:18:20;;;;;;;13.48;5.40;;;12.80;99.90;;;;;;5056212;28;20021;-73
2021/04/19 09:20:50;;;;;;;11.55;5.20;;;13.20;99.90;;;;;;5060940;28;20048;-73
2021/04/19 09:23:32;;;;;;;16.00;6.40;;;13.30;99.90;;;;;;5055434;28;20559;-73
2021/04/19 09:26:00;;;;;;;8.65;4.70;;;13.40;99.90;;;;;;5054946;28;20037;-72
2021/04/19 09:28:40;;;;;;;10.60;5.28;;;13.40;99.90;;;;;;5053437;28;20025;-75
2021/04/19 09:31:10;;;;;;;11.98;5.93;;;13.40;99.90;;;;;;5057434;28;20063;-73
2021/04/19 09:33:36;;;;;;;14.88;5.90;;;13.40;99.90;;;;;;5065355;28;20032;-74
2021/04/19 09:36:03;;;;;;;12.10;5.25;;;13.60;99.90;;;;;;5058705;28;20034;-73
2021/04/19 09:38:31;;;;;;;12.20;5.57;;;13.70;99.90;;;;;;5046653;28;20040;-73
2021/04/19 09:41:05;;;;;;;9.75;5.45;;;13.70;99.90;;;;;;5047543;28;20034;-74
2021/04/19 09:43:54;;;;;;;10.15;5.30;;;13.70;99.90;;;;;;5046732;28;20050;-72
2021/04/19 09:46:20;;;;;;;12.20;5.60;;;13.70;99.90;;;;;;5053875;28;20061;-75
2021/04/19 09:48:52;;;;;;;12.63;6.00;;;13.60;99.90;;;;;;5059388;28;20474;-75
2021/04/19 09:51:24;;;;;;;11.57;5.15;;;13.50;99.90;;;;;;5045313;28;20036;-74
2021/04/19 09:54:03;;;;;;;9.77;5.45;;;13.50;99.90;;;;;;5049608;28;20026;-75
2021/04/19 09:56:31;;;;;;;16.92;5.93;;;13.60;99.90;;;;;;5058381;28;20025;-74
2021/04/19 09:58:58;;;;;;;11.52;6.15;;;13.80;99.90;;;;;;5066303;28;20017;-74
2021/04/19 10:01:26;;;;;;;11.77;5.63;;;13.90;99.90;;;;;;5056155;28;20022;-74
2021/04/19 10:03:53;;;;;;;11.77;6.13;;;14.00;99.90;;;;;;5046738;28;20041;-73
2021/04/19 10:06:22;;;;;;;13.90;5.30;;;14.30;99.90;;;;;;5052035;28;20021;-73
2021/04/19 10:08:49;;;;;;;14.57;5.80;;;14.60;99.90;;;;;;5063502;28;20378;-72
2021/04/19 10:11:22;;;;;;;11.70;5.97;;;14.80;99.90;;;;;;5060071;28;20017;-72
2021/04/19 10:13:48;;;;;;;11.82;5.63;;;14.80;99.90;;;;;;5045387;28;20488;-74
2021/04/19 10:16:15;;;;;;;9.27;5.38;;;15.00;99.90;;;;;;5059547;28;20033;-74
2021/04/19 10:18:43;;;;;;;12.40;5.95;;;15.30;99.90;;;;;;5046677;28;20049;-74
2021/04/19 10:21:23;;;;;;;10.48;4.55;;;15.60;99.90;;;;;;5046237;28;20041;-73
2021/04/19 10:23:49;;;;;;;18.70;5.60;;;15.90;99.90;;;;;;5045054;28;20034;-77
2021/04/19 10:26:15;;;;;;;8.48;4.47;;;16.00;99.90;;;;;;5046370;28;20045;-73
2021/04/19 10:28:43;;;;;;;9.48;5.30;;;16.10;99.90;;;;;;5046388;28;20021;-74
2021/04/19 10:31:20;;;;;;;9.90;5.80;;;16.00;99.90;;;;;;5046326;28;20030;-73
2021/04/19 10:33:50;;;;;;;7.45;4.50;;;16.00;99.90;;;;;;5046110;28;20043;-73
2021/04/19 10:36:20;;;;;;;9.63;5.50;;;16.00;99.90;;;;;;5046144;28;20053;-74
2021/04/19 10:38:52;;;;;;;13.02;5.38;;;16.00;99.90;;;;;;5046044;28;20454;-74
2021/04/19 10:41:35;;;;;;;10.02;4.88;;;16.20;99.90;;;;;;5046046;28;20021;-73
2021/04/19 10:44:02;;;;;;;10.18;5.40;;;16.70;99.90;;;;;;5045870;28;20042;-74
2021/04/19 10:46:33;;;;;;;8.23;4.43;;;16.90;99.90;;;;;;5045663;28;20079;-74
2021/04/19 10:49:00;;;;;;;11.48;5.13;;;17.00;99.90;;;;;;5045802;28;20025;-74
2021/04/19 10:51:40;;;;;;;9.85;5.57;;;16.70;99.90;;;;;;5053969;28;20033;-73
2021/04/19 10:54:08;;;;;;;9.38;4.72;;;16.60;99.90;;;;;;5045038;28;20093;-72
2021/04/19 10:56:35;;;;;;;8.02;4.47;;;16.60;99.90;;;;;;5045742;28;20025;-73
2021/04/19 10:59:05;;;;;;;9.85;5.57;;;16.90;99.90;;;;;;5045490;28;20121;-74
2021/04/19 11:01:37;;;;;;;10.15;4.68;;;17.00;99.90;;;;;;5045579;28;20033;-74
2021/04/19 11:04:05;;;;;;;9.93;5.32;;;16.90;99.90;;;;;;5044953;28;20041;-74
2021/04/19 11:06:30;;;;;;;10.73;5.03;;;16.90;99.90;;;;;;5044801;28;20169;-74
2021/04/19 11:08:57;;;;;;;12.32;5.32;;;16.70;99.90;;;;;;5045446;28;20074;-73
2021/04/19 11:11:34;;;;;;;8.82;5.22;;;16.60;99.90;;;;;;5045544;28;20108;-73
2021/04/19 11:14:13;;;;;;;10.15;4.93;;;16.70;99.90;;;;;;5045091;28;20022;-72
2021/04/19 11:16:53;;;;;;;11.02;5.53;;;16.90;99.90;;;;;;5045555;28;20104;-73
2021/04/19 11:19:43;;;;;;;10.88;4.10;;;17.20;99.90;;;;;;5044764;28;20400;-74
2021/04/19 11:22:35;;;;;;;11.18;5.22;;;17.60;99.90;;;;;;5045362;28;20057;-73
2021/04/19 11:25:17;;;;;;;10.05;5.53;;;18.00;99.90;;;;;;5044686;28;20068;-76
2021/04/19 11:27:44;;;;;;;8.98;4.82;;;18.30;99.90;;;;;;5045287;28;20025;-72
2021/04/19 11:30:18;;;;;;;12.10;5.07;;;18.30;99.90;;;;;;5045108;28;20029;-72
2021/04/19 11:32:44;;;;;;;9.15;4.60;;;18.30;99.90;;;;;;5045282;28;20075;-74
2021/04/19 11:35:24;;;;;;;11.23;5.10;;;18.20;99.90;;;;;;5045052;28;20077;-72
2021/04/19 11:38:00;;;;;;;8.45;4.80;;;18.50;99.90;;;;;;5044946;28;20060;-71
2021/04/19 11:40:40;;;;;;;9.18;4.40;;;18.70;99.90;;;;;;5044975;28;20503;-71
2021/04/19 11:43:28;;;;;;;9.63;5.18;;;18.70;99.90;;;;;;5044977;28;20466;-73
2021/04/19 11:46:14;;;;;;;9.07;4.75;;;18.80;99.90;;;;;;5044936;28;20406;-72
2021/04/19 11:48:44;;;;;;;11.98;5.03;;;19.30;99.90;;;;;;5045145;28;20034;-73
2021/04/19 11:51:11;;;;;;;9.02;4.30;;;19.70;99.90;;;;;;5045428;28;20021;-72
2021/04/19 11:53:39;;;;;;;12.23;5.55;;;20.00;99.90;;;;;;5045123;28;20025;-74
2021/04/19 11:56:07;;;;;;;9.05;4.38;;;20.30;99.90;;;;;;5044889;28;20021;-69
2021/04/19 11:58:35;;;;;;;6.00;3.92;;;20.40;99.90;;;;;;5044796;28;20465;-71
2021/04/19 12:01:03;;;;;;;7.55;4.63;;;20.40;99.90;;;;;;5044562;28;20042;-72
2021/04/19 12:03:28;;;;;;;10.77;4.85;;;20.50;99.90;;;;;;5044571;28;20030;-72
2021/04/19 12:05:54;;;;;;;10.48;5.22;;;20.50;99.90;;;;;;5044770;28;20048;-72
2021/04/19 12:08:20;;;;;;;9.55;5.25;;;20.50;99.90;;;;;;5044609;28;20052;-73
2021/04/19 12:10:46;;;;;;;7.32;3.95;;;20.70;99.90;;;;;;5044915;28;20033;-72
2021/04/19 12:13:15;;;;;;;8.90;4.80;;;20.90;99.90;;;;;;5044697;28;20112;-72
2021/04/19 12:15:47;;;;;;;11.18;4.80;;;21.00;99.90;;;;;;5044772;28;20048;-74
2021/04/19 12:18:13;;;;;;;7.93;4.47;;;21.00;99.90;;;;;;5043537;28;20166;-72
2021/04/19 12:20:39;;;;;;;8.30;4.35;;;21.00;99.90;;;;;;5044449;28;20045;-72
2021/04/19 12:23:05;;;;;;;9.18;4.78;;;21.10;99.90;;;;;;5044341;28;20041;-72
2021/04/19 12:25:32;;;;;;;11.18;4.50;;;21.20;99.90;;;;;;5044397;28;20045;-72
2021/04/19 12:27:59;;;;;;;10.23;5.20;;;21.30;99.90;;;;;;5044669;28;20147;-74
2021/04/19 12:30:26;;;;;;;8.05;4.65;;;21.40;99.90;;;;;;5044566;28;20108;-71
2021/04/19 12:32:51;;;;;;;10.07;4.70;;;21.40;99.90;;;;;;5043072;28;20034;-74
2021/04/19 12:35:19;;;;;;;8.45;4.25;;;21.50;99.90;;;;;;5043264;28;20056;-76
2021/04/19 12:37:45;;;;;;;8.65;5.07;;;21.50;99.90;;;;;;5048520;28;20021;-76
2021/04/19 12:40:11;;;;;;;10.60;5.68;;;21.60;99.90;;;;;;5048719;28;20033;-73
2021/04/19 12:42:36;;;;;;;7.82;4.45;;;21.70;99.90;;;;;;5048838;28;20504;-74
2021/04/19 12:45:03;;;;;;;8.27;4.95;;;21.60;99.90;;;;;;5048325;28;20052;-70
2021/04/19 12:47:29;;;;;;;9.57;5.22;;;21.40;99.90;;;;;;5046448;28;20028;-72
2021/04/19 12:49:54;;;;;;;9.30;4.35;;;21.10;99.90;;;;;;5045213;28;20104;-72
2021/04/19 12:52:20;;;;;;;8.32;5.10;;;20.90;99.90;;;;;;5047139;28;20047;-70
2021/04/19 12:54:45;;;;;;;8.50;5.10;;;20.70;99.90;;;;;;5048365;28;20025;-71
2021/04/19 12:57:12;;;;;;;12.88;4.47;;;20.50;99.90;;;;;;5048684;28;20359;-72